createdAt,value
2019-01-05T00:02:42.012Z,5.70
2019-01-05T00:05:41.165Z,5.90
2019-01-05T00:08:45.869Z,6.20
2019-01-05T00:11:47.447Z,6.00
2019-01-05T00:14:44.225Z,6.20
2019-01-05T00:17:45.788Z,5.60
2019-01-05T00:20:45.825Z,5.80
2019-01-05T00:26:41.999Z,5.90
2019-01-05T00:29:42.241Z,5.50
2019-01-05T00:32:44.340Z,6.00
2019-01-05T00:35:39.901Z,6.00
2019-01-05T00:38:44.486Z,5.70
2019-01-05T00:41:41.655Z,6.10
2019-01-05T00:44:37.300Z,6.50
2019-01-05T00:47:37.321Z,6.00
2019-01-05T00:50:26.374Z,5.90
2019-01-05T00:53:56.442Z,6.00
2019-01-05T00:56:58.972Z,5.90
2019-01-05T00:59:58.222Z,6.10
2019-01-05T01:02:56.251Z,6.00
2019-01-05T01:05:55.290Z,6.10
2019-01-05T01:08:42.048Z,6.10
2019-01-05T01:11:38.924Z,6.10
2019-01-05T01:14:38.028Z,6.10
2019-01-05T01:20:26.022Z,6.10
2019-01-05T01:23:28.166Z,6.20
2019-01-05T01:26:30.201Z,6.60
2019-01-05T01:29:30.178Z,6.10
2019-01-05T01:32:30.234Z,6.10
2019-01-05T01:35:31.727Z,6.00
2019-01-05T01:38:35.577Z,6.20
2019-01-05T01:41:33.481Z,6.00
2019-01-05T01:44:22.904Z,5.80
2019-01-05T01:47:30.693Z,6.20
2019-01-05T01:50:31.117Z,5.90
2019-01-05T01:53:29.602Z,6.30
2019-01-05T01:56:39.611Z,5.90
2019-01-05T02:03:19.174Z,6.30
2019-01-05T02:06:20.291Z,6.60
2019-01-05T02:09:21.285Z,6.10
2019-01-05T02:15:09.140Z,6.20
2019-01-05T02:18:10.482Z,6.60
2019-01-05T02:21:11.977Z,5.80
2019-01-05T02:24:39.234Z,6.30
2019-01-05T02:28:06.056Z,6.20
2019-01-05T02:30:54.735Z,6.70
2019-01-05T02:34:21.831Z,6.30
2019-01-05T02:37:06.477Z,6.30
2019-01-05T02:40:09.594Z,5.90
2019-01-05T02:43:09.564Z,6.30
2019-01-05T02:49:15.687Z,6.30
2019-01-05T02:55:17.911Z,6.20
2019-01-05T02:58:18.487Z,6.30
2019-01-05T03:01:15.136Z,6.30
2019-01-05T03:04:07.236Z,6.40
2019-01-05T03:09:43.307Z,6.50
2019-01-05T03:15:47.530Z,6.00
2019-01-05T03:18:48.164Z,6.70
2019-01-05T03:21:49.392Z,6.70
2019-01-05T03:24:55.607Z,6.50
2019-01-05T03:28:02.852Z,6.60
2019-01-05T03:31:00.297Z,6.60
2019-01-05T03:34:26.176Z,6.00
2019-01-05T03:37:55.978Z,6.60
2019-01-05T03:41:02.076Z,6.70
2019-01-05T03:43:52.719Z,6.60
2019-01-05T03:46:55.480Z,6.50
2019-01-05T03:49:58.664Z,6.30
2019-01-05T03:53:01.362Z,6.70
2019-01-05T03:56:01.465Z,7.00
2019-01-05T04:02:06.855Z,6.60
2019-01-05T04:08:38.973Z,6.40
2019-01-05T04:12:04.786Z,6.70
2019-01-05T04:15:03.896Z,6.80
2019-01-05T04:21:07.441Z,6.80
2019-01-05T04:24:10.431Z,6.60
2019-01-05T04:27:17.615Z,7.00
2019-01-05T04:30:45.624Z,6.90
2019-01-05T04:34:10.538Z,6.50
2019-01-05T04:37:12.377Z,7.50
2019-01-05T04:40:38.597Z,6.90
2019-01-05T04:43:40.564Z,6.90
2019-01-05T04:46:41.556Z,6.80
2019-01-05T04:49:41.931Z,7.00
2019-01-05T04:52:55.490Z,7.00
2019-01-05T04:56:23.574Z,6.90
2019-01-05T04:59:29.775Z,6.90
2019-01-05T05:02:46.723Z,6.60
2019-01-05T05:06:14.565Z,7.00
2019-01-05T05:09:18.311Z,7.00
2019-01-05T05:12:12.641Z,7.00
2019-01-05T05:15:16.068Z,6.70
2019-01-05T05:18:15.568Z,7.10
2019-01-05T05:21:42.402Z,7.10
2019-01-05T05:24:44.045Z,7.20
2019-01-05T05:28:15.626Z,7.10
2019-01-05T05:31:42.720Z,7.10
2019-01-05T05:37:43.612Z,7.30
2019-01-05T05:41:01.085Z,6.90
2019-01-05T05:44:28.154Z,7.60
2019-01-05T05:47:28.325Z,7.20
2019-01-05T05:50:24.236Z,7.20
2019-01-05T05:53:24.114Z,7.50
2019-01-05T05:56:27.695Z,7.30
2019-01-05T05:59:30.112Z,7.60
2019-01-05T06:02:30.813Z,7.60
2019-01-05T06:05:31.128Z,7.40
2019-01-05T06:11:35.656Z,7.20
2019-01-05T06:14:37.016Z,8.00
2019-01-05T06:17:39.269Z,7.60
2019-01-05T06:20:29.258Z,7.40
2019-01-05T06:23:31.079Z,7.80
2019-01-05T06:26:25.755Z,7.80
2019-01-05T06:29:25.786Z,7.60
2019-01-05T06:32:26.812Z,7.50
2019-01-05T06:39:01.226Z,7.80
2019-01-05T06:42:28.071Z,7.80
2019-01-05T06:45:29.815Z,7.80
2019-01-05T06:48:31.206Z,7.80
2019-01-05T06:51:29.643Z,7.70
2019-01-05T06:54:29.455Z,7.90
2019-01-05T06:57:28.902Z,7.90
2019-01-05T07:00:34.086Z,7.80
2019-01-05T07:03:29.963Z,7.90
2019-01-05T07:06:31.406Z,7.80
2019-01-05T07:09:58.853Z,7.90
2019-01-05T07:13:01.123Z,7.90
2019-01-05T07:16:14.028Z,7.80
2019-01-05T07:22:44.555Z,7.90
2019-01-05T07:25:42.652Z,7.70
2019-01-05T07:32:13.039Z,7.80
2019-01-05T07:35:43.703Z,7.80
2019-01-05T07:39:12.688Z,7.50
2019-01-05T07:42:13.141Z,7.70
2019-01-05T07:45:15.102Z,8.00
2019-01-05T07:51:04.298Z,7.70
2019-01-05T07:54:11.700Z,8.10
2019-01-05T07:57:41.162Z,7.70
2019-01-05T08:01:08.085Z,7.80
2019-01-05T08:04:12.085Z,7.50
2019-01-05T08:07:13.471Z,7.80
2019-01-05T08:14:13.071Z,7.40
2019-01-05T08:17:19.774Z,7.40
2019-01-05T08:20:21.382Z,7.70
2019-01-05T08:23:22.191Z,7.80
2019-01-05T08:26:21.712Z,7.50
2019-01-05T08:29:17.028Z,7.80
2019-01-05T08:32:18.450Z,8.10
2019-01-05T08:35:22.664Z,7.60
2019-01-05T08:38:50.391Z,7.90
2019-01-05T08:48:48.059Z,8.20
2019-01-05T08:51:48.853Z,7.90
2019-01-05T08:54:49.443Z,8.00
2019-01-05T09:00:54.049Z,8.00
2019-01-05T09:03:52.141Z,8.00
2019-01-05T09:07:19.354Z,7.60
2019-01-05T09:10:47.324Z,7.90
2019-01-05T09:16:25.718Z,7.90
2019-01-05T09:19:27.278Z,7.80
2019-01-05T09:22:23.029Z,7.90
2019-01-05T09:25:23.796Z,7.70
2019-01-05T09:28:23.509Z,7.80
2019-01-05T09:31:19.406Z,7.90
2019-01-05T09:34:21.230Z,7.90
2019-01-05T09:37:24.945Z,8.00
2019-01-05T09:40:12.212Z,7.70
2019-01-05T09:43:17.038Z,8.10
2019-01-05T09:46:23.927Z,8.10
2019-01-05T09:49:25.823Z,8.00
2019-01-05T09:52:25.452Z,8.00
2019-01-05T09:55:18.876Z,7.80
2019-01-05T09:58:18.147Z,7.90
2019-01-05T10:01:18.692Z,8.10
2019-01-05T10:04:19.309Z,7.90
2019-01-05T10:07:19.591Z,7.80
2019-01-05T10:10:46.397Z,7.50
2019-01-05T10:14:13.476Z,8.00
2019-01-05T10:17:14.195Z,8.00
2019-01-05T10:20:17.527Z,8.10
2019-01-05T10:23:45.244Z,7.90
2019-01-05T10:26:44.647Z,8.10
2019-01-05T10:29:39.556Z,8.30
2019-01-05T10:32:40.678Z,8.20
2019-01-05T10:35:41.804Z,8.20
2019-01-05T10:38:42.666Z,8.00
2019-01-05T10:41:34.539Z,8.00
2019-01-05T10:44:35.819Z,8.10
2019-01-05T10:47:35.774Z,8.20
2019-01-05T10:54:14.524Z,8.20
2019-01-05T10:57:41.361Z,8.30
2019-01-05T11:00:42.598Z,8.20
2019-01-05T11:03:44.378Z,8.10
2019-01-05T11:10:16.459Z,8.20
2019-01-05T11:13:43.551Z,8.20
2019-01-05T11:16:47.148Z,8.50
2019-01-05T11:20:14.905Z,7.90
2019-01-05T11:23:42.260Z,8.20
2019-01-05T11:26:43.957Z,8.00
2019-01-05T11:29:43.299Z,8.20
2019-01-05T11:33:12.131Z,8.10
2019-01-05T11:36:41.845Z,8.20
2019-01-05T11:39:43.503Z,8.70
2019-01-05T11:45:32.873Z,8.40
2019-01-05T11:48:32.966Z,8.40
2019-01-05T11:51:36.135Z,8.40
2019-01-05T11:54:38.789Z,8.30
2019-01-05T11:57:38.328Z,8.00
2019-01-05T12:00:38.612Z,8.00
2019-01-05T12:03:40.948Z,8.20
2019-01-05T12:06:41.898Z,8.40
2019-01-05T12:09:42.064Z,8.10
2019-01-05T12:12:42.228Z,8.00
2019-01-05T12:15:41.396Z,7.90
2019-01-05T12:18:40.506Z,8.50
2019-01-05T12:21:43.893Z,8.40
2019-01-05T12:24:43.950Z,8.40
2019-01-05T12:27:44.074Z,8.40
2019-01-05T12:30:44.464Z,8.00
2019-01-05T12:33:48.713Z,8.50
2019-01-05T12:36:49.682Z,8.40
2019-01-05T12:39:47.925Z,8.40
2019-01-05T12:42:49.283Z,8.50
2019-01-05T12:45:55.281Z,8.70
2019-01-05T12:52:22.560Z,8.40
2019-01-05T12:55:27.432Z,8.30
2019-01-05T12:58:38.218Z,8.70
2019-01-05T13:02:01.882Z,8.30
2019-01-05T13:05:01.955Z,8.50
2019-01-05T13:12:02.132Z,8.30
2019-01-05T13:21:17.357Z,8.70
2019-01-05T13:27:48.293Z,8.40
2019-01-05T13:33:51.960Z,8.30
2019-01-05T13:36:50.105Z,7.80
2019-01-05T13:39:50.616Z,8.30
2019-01-05T13:43:17.454Z,8.30
2019-01-05T13:46:44.534Z,8.40
2019-01-05T13:49:46.594Z,8.40
2019-01-05T13:52:49.882Z,8.30
2019-01-05T13:58:55.069Z,8.20
2019-01-05T14:04:44.485Z,8.20
2019-01-05T14:07:44.827Z,8.30
2019-01-05T14:13:54.352Z,8.20
2019-01-05T14:19:58.534Z,8.10
2019-01-05T14:23:04.448Z,8.10
2019-01-05T14:26:05.336Z,8.00
2019-01-05T14:29:16.754Z,8.00
2019-01-05T14:32:23.268Z,8.10
2019-01-05T14:35:22.911Z,8.30
2019-01-05T14:38:25.758Z,8.10
2019-01-05T14:41:15.870Z,7.90
2019-01-05T14:44:24.182Z,8.20
2019-01-05T14:47:26.201Z,8.10
2019-01-05T14:50:32.568Z,8.10
2019-01-05T14:53:32.905Z,8.20
2019-01-05T14:56:33.196Z,8.20
2019-01-05T14:59:32.490Z,8.40
2019-01-05T15:02:26.935Z,8.00
2019-01-05T15:05:09.517Z,8.10
2019-01-05T15:08:09.386Z,8.10
2019-01-05T15:11:08.687Z,7.80
2019-01-05T15:13:57.233Z,8.00
2019-01-05T15:17:00.148Z,8.00
2019-01-05T15:20:00.642Z,8.10
2019-01-05T15:22:53.470Z,8.10
2019-01-05T15:28:56.417Z,8.40
2019-01-05T15:31:47.991Z,8.30
2019-01-05T15:34:49.750Z,7.60
2019-01-05T15:37:59.155Z,8.00
2019-01-05T15:41:03.420Z,7.70
2019-01-05T15:44:10.566Z,7.80
2019-01-05T15:47:05.571Z,7.50
2019-01-05T15:50:03.387Z,7.50
2019-01-05T15:53:03.841Z,7.50
2019-01-05T15:55:50.813Z,7.90
2019-01-05T15:58:57.081Z,8.10
2019-01-05T16:01:56.308Z,7.90
2019-01-05T16:04:53.248Z,8.00
2019-01-05T16:07:52.596Z,8.00
2019-01-05T16:10:52.895Z,7.80
2019-01-05T16:14:01.516Z,7.80
2019-01-05T16:17:08.467Z,7.90
2019-01-05T16:20:08.429Z,8.10
2019-01-05T16:22:56.672Z,7.70
2019-01-05T16:25:54.336Z,7.80
2019-01-05T16:28:56.876Z,7.30
2019-01-05T16:31:58.683Z,7.80
2019-01-05T16:34:46.133Z,7.80
2019-01-05T16:37:42.863Z,7.80
2019-01-05T16:40:44.087Z,7.50
2019-01-05T16:43:45.348Z,7.80
2019-01-05T16:46:46.130Z,7.80
2019-01-05T16:49:47.018Z,7.70
2019-01-05T16:55:24.503Z,7.70
2019-01-05T16:58:32.105Z,7.50
2019-01-05T17:01:32.585Z,7.50
2019-01-05T17:04:14.658Z,7.70
2019-01-05T17:07:15.358Z,7.70
2019-01-05T17:10:15.852Z,7.60
2019-01-05T17:13:15.248Z,7.80
2019-01-05T17:16:06.843Z,7.60
2019-01-05T17:19:06.366Z,7.70
2019-01-05T17:21:59.426Z,7.90
2019-01-05T17:24:58.742Z,7.30
2019-01-05T17:27:58.007Z,7.50
2019-01-05T17:30:58.035Z,7.60
2019-01-05T17:33:58.514Z,7.70
2019-01-05T17:40:00.493Z,7.70
2019-01-05T17:43:01.252Z,7.70
2019-01-05T17:46:08.805Z,7.60
2019-01-05T17:49:12.865Z,7.60
2019-01-05T17:52:10.680Z,7.60
2019-01-05T17:55:10.271Z,7.20
2019-01-05T17:58:11.541Z,7.10
2019-01-05T18:01:11.097Z,7.80
2019-01-05T18:04:11.084Z,7.60
2019-01-05T18:06:58.238Z,7.90
2019-01-05T18:10:04.833Z,7.70
2019-01-05T18:12:48.062Z,7.90
2019-01-05T18:15:53.065Z,7.60
2019-01-05T18:19:00.279Z,7.80
2019-01-05T18:21:57.929Z,7.70
2019-01-05T18:24:59.615Z,7.40
2019-01-05T18:28:02.548Z,7.60
2019-01-05T18:31:03.877Z,7.10
2019-01-05T18:34:00.039Z,7.70
2019-01-05T18:37:00.677Z,7.80
2019-01-05T18:39:49.247Z,8.00
2019-01-05T18:42:56.869Z,7.60
2019-01-05T18:45:51.852Z,7.60
2019-01-05T18:48:45.786Z,7.80
2019-01-05T18:51:33.654Z,7.60
2019-01-05T18:54:40.173Z,7.60
2019-01-05T18:57:45.957Z,7.90
2019-01-05T19:00:45.995Z,7.70
2019-01-05T19:03:39.843Z,7.60
2019-01-05T19:06:27.138Z,7.80
2019-01-05T19:09:33.793Z,7.60
2019-01-05T19:12:35.973Z,7.30
2019-01-05T19:15:37.718Z,7.70
2019-01-05T19:18:25.803Z,8.00
2019-01-05T19:21:34.392Z,7.60
2019-01-05T19:24:37.954Z,7.40
2019-01-05T19:27:34.442Z,7.30
2019-01-05T19:30:41.603Z,7.60
2019-01-05T19:33:43.102Z,7.70
2019-01-05T19:36:44.273Z,7.50
2019-01-05T19:39:45.411Z,7.40
2019-01-05T19:42:45.865Z,7.30
2019-01-05T19:45:46.068Z,7.20
2019-01-05T19:48:51.240Z,7.50
2019-01-05T19:51:50.824Z,7.30
2019-01-05T19:54:35.075Z,7.20
2019-01-05T19:57:34.816Z,7.60
2019-01-05T20:00:36.113Z,7.60
2019-01-05T20:03:35.463Z,7.30
2019-01-05T20:09:25.414Z,7.30
2019-01-05T20:12:32.016Z,7.60
2019-01-05T20:15:32.059Z,7.60
2019-01-05T20:18:38.826Z,7.60
2019-01-05T20:21:40.836Z,7.50
2019-01-05T20:24:44.923Z,7.60
2019-01-05T20:27:45.288Z,7.30
2019-01-05T20:30:45.495Z,7.40
2019-01-05T20:33:47.767Z,7.60
2019-01-05T20:40:01.385Z,7.30
2019-01-05T20:45:50.198Z,7.50
2019-01-05T20:48:50.035Z,7.70
2019-01-05T20:51:37.002Z,7.80
2019-01-05T20:54:44.466Z,7.70
2019-01-05T20:57:29.528Z,7.70
2019-01-05T21:00:17.834Z,7.40
2019-01-05T21:03:05.597Z,7.60
2019-01-05T21:06:05.367Z,7.60
2019-01-05T21:09:04.726Z,7.50
2019-01-05T21:12:05.640Z,7.60
2019-01-05T21:15:05.757Z,7.50
2019-01-05T21:18:05.987Z,7.60
2019-01-05T21:21:12.242Z,7.50
2019-01-05T21:24:10.217Z,7.70
2019-01-05T21:27:12.551Z,7.60
2019-01-05T21:30:16.352Z,7.40
2019-01-05T21:33:25.885Z,7.40
2019-01-05T21:36:34.923Z,7.10
2019-01-05T21:39:34.288Z,7.20
2019-01-05T21:42:33.488Z,7.20
2019-01-05T21:45:32.606Z,7.30
2019-01-05T21:48:36.401Z,7.60
2019-01-05T21:51:40.916Z,7.10
2019-01-05T21:54:42.442Z,7.60
2019-01-05T21:57:44.777Z,7.40
2019-01-05T22:00:53.876Z,7.50
2019-01-05T22:03:56.946Z,7.40
2019-01-05T22:06:58.304Z,7.40
2019-01-05T22:10:04.908Z,7.50
2019-01-05T22:13:03.495Z,7.50
2019-01-05T22:16:06.797Z,7.80
2019-01-05T22:18:53.708Z,7.40
2019-01-05T22:22:00.173Z,7.10
2019-01-05T22:24:59.792Z,7.40
2019-01-05T22:28:05.023Z,7.40
2019-01-05T22:31:04.617Z,8.00
2019-01-05T22:33:58.416Z,7.60
2019-01-05T22:37:06.101Z,7.60
2019-01-05T22:39:55.003Z,7.80
2019-01-05T22:46:05.608Z,7.50
2019-01-05T22:49:05.996Z,7.50
2019-01-05T22:51:54.041Z,7.00
2019-01-05T22:55:01.291Z,7.50
2019-01-05T22:58:01.456Z,7.50
2019-01-05T23:00:56.183Z,7.60
2019-01-05T23:04:04.495Z,7.10
2019-01-05T23:07:04.282Z,7.50
2019-01-05T23:10:03.730Z,7.80
2019-01-05T23:19:13.699Z,7.70
2019-01-05T23:25:24.497Z,7.70
2019-01-05T23:28:26.590Z,7.60
2019-01-05T23:31:35.614Z,7.60
2019-01-05T23:34:35.992Z,7.40
2019-01-05T23:37:37.097Z,7.60
2019-01-05T23:40:37.653Z,7.70
2019-01-05T23:43:38.019Z,7.60
2019-01-05T23:46:38.288Z,7.30
2019-01-05T23:52:46.702Z,7.60
2019-01-05T23:55:48.429Z,7.70
2019-01-05T23:58:47.661Z,7.40
